Time;durP1;ratioP1;P1;durP2;ratioP2;P2;SDS_P1;SDS_P2;PMS_P1;PMS_P2;Temp;Humidity;BMP_temperature;BMP_pressure;BME280_temperature;BME280_humidity;BME280_pressure;Samples;Min_cycle;Max_cycle;Signal;HPM_P1;HPM_P2
2021/09/29 00:00:14;;;;;;;3.97;1.83;;;;;;;16.06;65.59;101534.50;4981860;28;20035;-61
2021/09/29 00:02:40;;;;;;;6.03;2.25;;;;;;;16.17;65.20;101541.88;4982297;28;20294;-61
2021/09/29 00:05:06;;;;;;;3.15;2.08;;;;;;;16.18;65.09;101535.63;4982429;28;20073;-61
2021/09/29 00:07:31;;;;;;;2.38;1.75;;;;;;;16.09;65.04;101533.47;4981924;28;20381;-63
2021/09/29 00:09:57;;;;;;;3.13;1.88;;;;;;;16.00;65.51;101526.88;4981721;28;20073;-63
2021/09/29 00:12:22;;;;;;;3.97;1.92;;;;;;;15.89;65.47;101518.69;4981954;28;20126;-63
2021/09/29 00:14:48;;;;;;;2.58;1.63;;;;;;;15.68;66.47;101520.59;4981919;28;20338;-60
2021/09/29 00:17:13;;;;;;;10.35;2.10;;;;;;;15.48;66.25;101516.34;4981541;28;20042;-63
2021/09/29 00:19:39;;;;;;;4.28;2.10;;;;;;;15.57;66.21;101510.59;4964562;28;20038;-63
2021/09/29 00:22:05;;;;;;;4.35;2.08;;;;;;;15.69;66.09;101506.47;4981804;28;20215;-61
2021/09/29 00:24:30;;;;;;;3.30;2.00;;;;;;;15.74;65.77;101504.50;4964404;28;20043;-61
2021/09/29 00:26:56;;;;;;;5.43;2.70;;;;;;;15.56;66.26;101498.34;4981863;28;20042;-60
2021/09/29 00:29:21;;;;;;;4.15;1.95;;;;;;;15.78;66.01;101495.47;4981682;28;20050;-61
2021/09/29 00:31:46;;;;;;;2.25;2.00;;;;;;;15.62;67.29;101487.44;4981710;28;20046;-61
2021/09/29 00:34:14;;;;;;;3.75;2.05;;;;;;;15.65;65.88;101478.53;4981519;28;20113;-62
2021/09/29 00:36:43;;;;;;;4.03;2.00;;;;;;;15.50;65.93;101483.66;4981996;28;20050;-61
2021/09/29 00:39:10;;;;;;;6.97;2.47;;;;;;;15.07;67.62;101477.06;4962836;28;20072;-62
2021/09/29 00:41:35;;;;;;;4.20;2.40;;;;;;;15.48;66.75;101469.69;4980901;28;20049;-61
2021/09/29 00:44:01;;;;;;;5.68;2.45;;;;;;;15.40;66.56;101463.09;4981748;28;20241;-61
2021/09/29 00:46:27;;;;;;;3.22;2.13;;;;;;;15.35;67.22;101458.03;4981319;28;20233;-62
2021/09/29 00:48:52;;;;;;;6.22;2.30;;;;;;;15.54;66.70;101457.97;4970125;28;20376;-62
2021/09/29 00:51:17;;;;;;;7.70;2.30;;;;;;;15.68;66.25;101458.09;4945832;28;20039;-63
2021/09/29 00:53:45;;;;;;;5.43;2.10;;;;;;;15.63;66.84;101448.72;4981391;28;20101;-62
2021/09/29 00:56:11;;;;;;;11.05;2.92;;;;;;;15.42;67.23;101453.31;4964665;28;20350;-62
2021/09/29 00:58:36;;;;;;;7.35;2.58;;;;;;;15.16;67.64;101451.06;4980303;28;20027;-62
2021/09/29 01:01:01;;;;;;;7.97;2.88;;;;;;;15.41;66.14;101449.81;4981504;28;20270;-62
2021/09/29 01:03:27;;;;;;;5.18;2.28;;;;;;;15.06;68.28;101443.69;4979276;28;20043;-62
2021/09/29 01:05:53;;;;;;;5.72;2.45;;;;;;;15.24;67.46;101442.75;4981095;28;20081;-62
2021/09/29 01:08:24;;;;;;;4.18;2.30;;;;;;;15.88;65.84;101438.59;4973164;28;20042;-62
2021/09/29 01:11:04;;;;;;;5.68;2.53;;;;;;;15.53;66.83;101436.00;4980484;28;20101;-62
2021/09/29 01:13:57;;;;;;;2.53;1.95;;;;;;;15.31;67.18;101422.19;4964073;28;20042;-62
2021/09/29 01:16:22;;;;;;;4.68;1.83;;;;;;;15.85;65.94;101414.13;4979723;28;20069;-62
2021/09/29 01:18:53;;;;;;;4.38;2.33;;;;;;;15.87;65.60;101415.75;4981003;28;20041;-62
2021/09/29 01:21:18;;;;;;;3.03;2.60;;;;;;;15.55;66.75;101412.13;4963973;28;20242;-62
2021/09/29 01:24:19;;;;;;;5.18;2.95;;;;;;;15.24;67.23;101408.44;4980946;28;20046;-62
2021/09/29 01:26:45;;;;;;;5.07;2.83;;;;;;;15.75;66.25;101405.84;4972043;28;20095;-62
2021/09/29 01:29:12;;;;;;;4.22;3.03;;;;;;;15.33;67.81;101400.09;4960389;29;20023;-61
2021/09/29 01:31:37;;;;;;;6.60;3.33;;;;;;;15.67;66.45;101394.81;4944507;29;20045;-62
2021/09/29 01:34:04;;;;;;;5.32;3.28;;;;;;;15.46;66.04;101397.66;4960537;29;20167;-62
2021/09/29 01:36:29;;;;;;;5.65;3.25;;;;;;;15.18;67.10;101398.22;4961098;29;20039;-62
2021/09/29 01:38:56;;;;;;;6.38;3.30;;;;;;;15.29;67.67;101398.50;4961542;29;20334;-62
2021/09/29 01:41:26;;;;;;;5.43;3.53;;;;;;;15.30;67.32;101396.75;4944089;29;20047;-61
2021/09/29 01:43:52;;;;;;;4.97;3.28;;;;;;;15.72;65.82;101390.16;4961512;29;20053;-62
2021/09/29 01:46:17;;;;;;;5.20;3.03;;;;;;;15.39;67.23;101379.56;4961174;29;20043;-62
2021/09/29 01:48:54;;;;;;;3.75;2.83;;;;;;;15.66;66.12;101372.84;4944194;29;20026;-62
2021/09/29 01:51:19;;;;;;;4.45;2.72;;;;;;;15.59;66.29;101378.50;4944915;29;20027;-62
2021/09/29 01:53:45;;;;;;;6.13;2.85;;;;;;;15.57;67.00;101364.53;4962630;28;20318;-60
2021/09/29 01:56:11;;;;;;;5.18;2.88;;;;;;;15.35;66.92;101356.00;4963350;28;20038;-62
2021/09/29 01:58:36;;;;;;;4.30;2.75;;;;;;;15.53;66.30;101354.16;4980689;28;20224;-62
2021/09/29 02:01:02;;;;;;;5.32;2.80;;;;;;;15.64;66.31;101350.94;4980211;28;20042;-62
2021/09/29 02:03:27;;;;;;;22.15;3.05;;;;;;;15.64;65.92;101358.84;4979820;28;20035;-62
2021/09/29 02:05:52;;;;;;;5.75;2.80;;;;;;;15.72;65.67;101339.97;4979782;28;20411;-62
2021/09/29 02:08:18;;;;;;;7.35;3.38;;;;;;;15.41;66.44;101338.97;4979861;28;20034;-61
2021/09/29 02:10:43;;;;;;;6.05;2.70;;;;;;;15.46;66.47;101342.22;4962707;28;20348;-62
2021/09/29 02:13:09;;;;;;;5.60;2.40;;;;;;;15.52;66.02;101346.31;4979770;28;20039;-60
2021/09/29 02:15:34;;;;;;;6.07;2.15;;;;;;;15.76;65.64;101336.25;4979726;28;20105;-62
2021/09/29 02:18:00;;;;;;;6.30;2.30;;;;;;;15.71;66.17;101332.97;4980175;28;20030;-61
2021/09/29 02:20:25;;;;;;;6.50;2.20;;;;;;;15.98;65.12;101327.16;4962458;28;20065;-62
2021/09/29 02:22:51;;;;;;;5.88;2.25;;;;;;;15.88;65.16;101335.59;4969654;28;20043;-62
2021/09/29 02:25:16;;;;;;;4.45;2.10;;;;;;;15.89;65.40;101328.50;4979727;28;20046;-63
2021/09/29 02:27:42;;;;;;;5.35;2.38;;;;;;;16.07;63.10;101316.06;4979675;28;20030;-62
2021/09/29 02:30:08;;;;;;;5.20;2.38;;;;;;;15.88;64.97;101322.38;4962245;28;20322;-63
2021/09/29 02:32:34;;;;;;;6.88;2.60;;;;;;;15.77;65.14;101322.13;4979104;28;20077;-62
2021/09/29 02:35:00;;;;;;;4.05;2.15;;;;;;;15.58;65.31;101314.31;4962268;28;20139;-62
2021/09/29 02:37:25;;;;;;;4.45;1.98;;;;;;;16.06;63.84;101323.16;4979215;28;20043;-62
2021/09/29 02:39:51;;;;;;;5.25;2.42;;;;;;;15.84;64.49;101326.09;4979240;28;20074;-62
2021/09/29 02:42:16;;;;;;;3.10;1.92;;;;;;;16.33;64.13;101322.50;4979069;28;20049;-62
2021/09/29 02:44:42;;;;;;;5.03;2.17;;;;;;;16.04;63.71;101326.81;4979802;28;20037;-64
2021/09/29 02:47:07;;;;;;;3.33;1.85;;;;;;;15.89;64.91;101328.50;4979919;28;20045;-65
2021/09/29 02:49:32;;;;;;;4.72;2.42;;;;;;;15.88;65.18;101332.94;4979129;28;20226;-65
2021/09/29 02:51:58;;;;;;;8.30;2.13;;;;;;;16.46;63.71;101318.25;4979764;28;20235;-65
2021/09/29 02:54:23;;;;;;;2.28;1.40;;;;;;;16.97;63.44;101327.66;4979592;28;20151;-65
2021/09/29 02:56:49;;;;;;;4.22;1.77;;;;;;;16.54;63.70;101331.00;4979033;28;20069;-65
2021/09/29 02:59:14;;;;;;;3.15;1.98;;;;;;;16.99;62.03;101325.75;4979721;28;20031;-62
2021/09/29 03:01:40;;;;;;;4.80;2.10;;;;;;;16.79;63.54;101329.56;4980551;28;20476;-63
2021/09/29 03:04:05;;;;;;;2.65;1.85;;;;;;;16.74;63.70;101332.50;4983119;28;20254;-62
2021/09/29 03:06:30;;;;;;;2.55;1.70;;;;;;;16.77;64.11;101323.50;4966480;28;20073;-63
2021/09/29 03:08:56;;;;;;;3.92;1.75;;;;;;;16.91;64.65;101314.81;4982964;28;20034;-63
2021/09/29 03:11:21;;;;;;;5.05;2.10;;;;;;;16.56;65.39;101315.91;4983127;28;20037;-63
2021/09/29 03:13:47;;;;;;;4.43;2.33;;;;;;;16.36;66.13;101316.22;4981713;28;20249;-63
2021/09/29 03:16:14;;;;;;;5.22;1.90;;;;;;;16.23;66.92;101308.13;4982864;28;20039;-63
2021/09/29 03:18:39;;;;;;;3.30;2.03;;;;;;;16.47;66.26;101311.16;4983091;28;20042;-63
2021/09/29 03:21:05;;;;;;;6.10;2.20;;;;;;;16.07;67.19;101305.50;4983366;28;20039;-63
2021/09/29 03:23:30;;;;;;;4.60;1.88;;;;;;;15.97;67.80;101301.66;4982529;28;20057;-63
2021/09/29 03:25:55;;;;;;;7.93;2.50;;;;;;;16.02;67.52;101299.63;4983358;28;20241;-63
2021/09/29 03:28:21;;;;;;;4.97;2.13;;;;;;;16.06;67.24;101302.03;4983058;28;20054;-63
2021/09/29 03:30:46;;;;;;;5.53;2.28;;;;;;;15.78;68.62;101289.50;4982804;28;20046;-63
2021/09/29 03:33:11;;;;;;;4.82;1.85;;;;;;;16.41;65.49;101292.97;4981784;28;20117;-63
2021/09/29 03:35:37;;;;;;;6.82;2.30;;;;;;;16.18;66.79;101291.69;4982693;28;20088;-63
2021/09/29 03:38:03;;;;;;;3.83;1.77;;;;;;;16.23;66.79;101290.47;4983019;28;20039;-63
2021/09/29 03:40:28;;;;;;;2.70;1.83;;;;;;;15.63;68.66;101288.53;4982121;28;20094;-63
2021/09/29 03:42:54;;;;;;;4.35;2.20;;;;;;;15.93;67.77;101286.00;4982750;28;20344;-62
2021/09/29 03:45:19;;;;;;;9.30;2.15;;;;;;;16.33;66.58;101282.88;4982511;28;20030;-62
2021/09/29 03:47:45;;;;;;;5.43;2.33;;;;;;;16.23;67.15;101271.97;4982861;28;20359;-63
2021/09/29 03:50:10;;;;;;;4.25;2.08;;;;;;;16.03;68.10;101269.63;4967993;28;20027;-63
2021/09/29 03:52:36;;;;;;;3.63;1.83;;;;;;;16.01;67.99;101255.63;4963014;29;20043;-63
2021/09/29 03:55:01;;;;;;;3.95;1.63;;;;;;;16.44;66.80;101267.22;4980270;28;20046;-63
2021/09/29 03:57:27;;;;;;;3.22;1.70;;;;;;;16.27;67.26;101270.84;4981516;28;20047;-63
2021/09/29 03:59:52;;;;;;;3.65;2.00;;;;;;;16.17;67.81;101264.41;4982555;28;20046;-63
2021/09/29 04:02:17;;;;;;;5.30;2.25;;;;;;;15.83;68.54;101268.13;4981791;28;20050;-63
2021/09/29 04:04:43;;;;;;;4.95;2.00;;;;;;;15.88;68.23;101258.13;4981935;28;20689;-63
2021/09/29 04:07:08;;;;;;;6.53;1.70;;;;;;;16.05;67.94;101252.75;4981981;28;20046;-63
2021/09/29 04:09:34;;;;;;;5.28;2.03;;;;;;;16.23;67.56;101256.13;4981607;28;20043;-63
2021/09/29 04:11:59;;;;;;;6.28;1.70;;;;;;;16.45;66.80;101265.47;4982012;28;20344;-63
2021/09/29 04:14:25;;;;;;;2.90;1.50;;;;;;;16.68;65.96;101257.00;4981331;28;20117;-63
2021/09/29 04:16:50;;;;;;;2.90;1.60;;;;;;;16.08;68.14;101255.22;4982156;28;20094;-63
2021/09/29 04:19:16;;;;;;;3.53;2.10;;;;;;;16.33;66.46;101251.16;4981841;28;20334;-63
2021/09/29 04:21:41;;;;;;;3.20;1.88;;;;;;;16.31;67.23;101251.22;4982026;28;20039;-63
2021/09/29 04:24:08;;;;;;;5.82;1.98;;;;;;;16.11;67.80;101249.75;4964885;28;20035;-63
2021/09/29 04:26:33;;;;;;;2.70;1.48;;;;;;;16.72;65.69;101248.88;4964528;28;20035;-63
2021/09/29 04:28:59;;;;;;;3.22;1.45;;;;;;;15.87;68.45;101244.06;4982096;28;20027;-63
2021/09/29 04:31:24;;;;;;;5.03;1.80;;;;;;;16.19;67.83;101245.81;4981279;28;20053;-63
2021/09/29 04:33:50;;;;;;;3.22;1.55;;;;;;;16.44;66.52;101248.72;4981678;28;20033;-63
2021/09/29 04:36:15;;;;;;;2.70;1.65;;;;;;;15.96;68.05;101244.50;4981444;28;20043;-63
2021/09/29 04:38:40;;;;;;;5.35;2.55;;;;;;;15.81;69.13;101239.16;4981402;28;20053;-63
2021/09/29 04:41:06;;;;;;;7.57;1.80;;;;;;;16.06;67.76;101229.81;4981054;28;20277;-63
2021/09/29 04:43:32;;;;;;;3.65;1.35;;;;;;;16.48;66.57;101229.13;4981136;28;20114;-63
2021/09/29 04:45:57;;;;;;;4.35;1.67;;;;;;;15.99;67.81;101224.06;4981904;28;20368;-63
2021/09/29 04:48:23;;;;;;;4.25;1.33;;;;;;;15.78;67.94;101218.19;4981558;28;20035;-63
2021/09/29 04:50:48;;;;;;;4.45;1.60;;;;;;;16.04;67.81;101224.63;4981378;28;20527;-63
2021/09/29 04:53:14;;;;;;;4.13;1.30;;;;;;;15.60;69.09;101227.13;4981397;28;20106;-63
2021/09/29 04:55:39;;;;;;;5.65;1.73;;;;;;;15.67;68.58;101220.56;4981251;28;20043;-63
2021/09/29 04:58:05;;;;;;;2.88;1.40;;;;;;;15.85;68.06;101226.63;4981183;28;20035;-63
2021/09/29 05:00:31;;;;;;;3.65;1.95;;;;;;;15.46;69.62;101225.22;4980172;28;20682;-63
2021/09/29 05:02:56;;;;;;;3.85;1.33;;;;;;;15.51;70.24;101221.41;4981397;28;20062;-63
2021/09/29 05:05:22;;;;;;;4.10;1.75;;;;;;;16.01;67.94;101223.94;4947376;28;20054;-63
2021/09/29 05:07:49;;;;;;;6.22;1.40;;;;;;;15.74;68.12;101219.31;4981033;28;20050;-63
2021/09/29 05:10:16;;;;;;;5.55;1.60;;;;;;;15.65;69.79;101222.44;4979622;28;20034;-63
2021/09/29 05:12:42;;;;;;;7.50;1.50;;;;;;;15.63;68.90;101217.25;4979456;28;20038;-63
2021/09/29 05:15:07;;;;;;;5.30;1.75;;;;;;;15.59;69.55;101209.56;4981392;28;20037;-63
2021/09/29 05:17:33;;;;;;;4.43;1.80;;;;;;;15.75;68.05;101210.44;4980579;28;20042;-63
2021/09/29 05:19:58;;;;;;;6.88;2.20;;;;;;;15.69;69.14;101218.69;4981125;28;20089;-63
2021/09/29 05:22:23;;;;;;;5.22;1.70;;;;;;;15.36;70.13;101209.91;4980535;28;20423;-63
2021/09/29 05:24:49;;;;;;;5.90;1.50;;;;;;;15.88;68.47;101216.75;4980184;28;20039;-62
2021/09/29 05:27:14;;;;;;;2.88;1.50;;;;;;;15.41;69.83;101209.66;4962728;28;20258;-63
2021/09/29 05:29:41;;;;;;;3.60;1.30;;;;;;;15.98;69.79;101213.56;4980740;28;20237;-65
2021/09/29 05:32:07;;;;;;;2.40;1.30;;;;;;;17.29;64.42;101213.69;4962413;28;20030;-64
2021/09/29 05:34:33;;;;;;;3.13;1.23;;;;;;;17.81;62.63;101221.78;4962775;28;20046;-64
2021/09/29 05:36:58;;;;;;;5.13;1.20;;;;;;;17.84;62.07;101224.25;4980737;28;20030;-64
2021/09/29 05:39:24;;;;;;;6.38;2.13;;;;;;;17.07;64.98;101226.47;4959262;28;20062;-64
2021/09/29 05:41:49;;;;;;;2.92;1.45;;;;;;;17.25;64.10;101226.28;4962335;28;20345;-64
2021/09/29 05:44:15;;;;;;;3.83;1.50;;;;;;;17.93;62.15;101225.47;4979738;28;20043;-64
2021/09/29 05:46:40;;;;;;;4.82;1.60;;;;;;;16.81;65.56;101233.31;4957046;28;20129;-64
2021/09/29 05:49:06;;;;;;;7.88;2.00;;;;;;;17.00;65.08;101232.22;4961970;28;20041;-64
2021/09/29 05:51:31;;;;;;;2.55;1.48;;;;;;;17.08;65.94;101230.81;4979951;28;20038;-64
2021/09/29 05:53:57;;;;;;;3.03;1.52;;;;;;;17.59;64.51;101226.75;4980156;28;20077;-65
2021/09/29 05:56:22;;;;;;;6.40;1.30;;;;;;;17.80;63.63;101225.38;4975747;28;20089;-65
2021/09/29 05:58:48;;;;;;;5.78;2.30;;;;;;;18.07;63.26;101244.94;4978656;28;20488;-65
2021/09/29 06:01:13;;;;;;;12.73;2.42;;;;;;;18.42;61.68;101235.44;4975758;28;20344;-65
2021/09/29 06:03:39;;;;;;;12.98;2.15;;;;;;;17.96;61.58;101227.06;4975640;28;20046;-65
2021/09/29 06:06:05;;;;;;;7.82;2.70;;;;;;;17.38;64.17;101223.69;4993401;28;20050;-65
2021/09/29 06:08:30;;;;;;;10.98;2.20;;;;;;;16.62;67.12;101222.16;4971259;28;20351;-64
2021/09/29 06:10:57;;;;;;;3.65;1.90;;;;;;;16.93;67.26;101221.16;4977133;28;20049;-65
2021/09/29 06:13:23;;;;;;;7.10;1.52;;;;;;;16.41;67.44;101218.97;4975655;28;20046;-65
2021/09/29 06:15:49;;;;;;;1.98;1.30;;;;;;;16.99;66.12;101214.63;4977126;28;20085;-64
2021/09/29 06:18:15;;;;;;;5.85;1.65;;;;;;;16.49;65.54;101214.09;4977275;28;20041;-64
2021/09/29 06:20:45;;;;;;;1.55;1.00;;;;;;;16.54;67.58;101219.97;4976815;28;20042;-65
2021/09/29 06:23:10;;;;;;;3.40;1.30;;;;;;;15.92;69.42;101220.91;4976274;28;20312;-64
2021/09/29 06:25:36;;;;;;;2.88;1.30;;;;;;;15.65;69.90;101225.06;4959450;28;20078;-64
2021/09/29 06:28:01;;;;;;;5.70;1.88;;;;;;;16.36;68.10;101234.28;4973267;28;20030;-64
2021/09/29 06:30:27;;;;;;;3.80;1.42;;;;;;;16.15;67.79;101241.66;4956510;28;20392;-63
2021/09/29 06:32:52;;;;;;;5.90;1.17;;;;;;;16.36;68.16;101250.97;4972094;28;20065;-63
2021/09/29 06:35:17;;;;;;;9.25;2.45;;;;;;;16.10;70.10;101249.84;4973347;28;20026;-63
2021/09/29 06:37:43;;;;;;;8.32;2.15;;;;;;;16.91;68.40;101249.50;4976273;28;20022;-62
2021/09/29 06:40:13;;;;;;;8.40;2.10;;;;;;;16.79;69.04;101250.22;4953730;28;20035;-63
2021/09/29 06:42:39;;;;;;;2.42;0.70;;;;;;;16.05;67.77;101250.09;4979899;28;20043;-63
2021/09/29 06:45:06;;;;;;;4.90;0.80;;;;;;;16.04;68.12;101252.84;4982109;28;20032;-63
2021/09/29 06:47:31;;;;;;;1.83;0.82;;;;;;;16.17;68.44;101255.63;4961324;28;20050;-64
2021/09/29 06:49:57;;;;;;;10.40;1.77;;;;;;;16.25;69.66;101254.25;4977074;28;20053;-64
2021/09/29 06:52:22;;;;;;;3.65;1.10;;;;;;;16.03;69.76;101252.00;4971551;28;20094;-63
2021/09/29 06:54:47;;;;;;;2.15;0.70;;;;;;;16.31;68.73;101251.22;4977857;28;20139;-63
2021/09/29 06:57:13;;;;;;;7.25;1.63;;;;;;;15.88;70.38;101251.06;4978958;28;20042;-62
2021/09/29 06:59:39;;;;;;;10.07;1.30;;;;;;;15.99;70.52;101252.25;4973344;28;20043;-63
2021/09/29 07:02:05;;;;;;;5.97;1.40;;;;;;;16.38;69.79;101264.09;4977331;28;20365;-63
2021/09/29 07:04:30;;;;;;;15.98;1.92;;;;;;;17.05;69.73;101262.75;4971847;28;20427;-64
2021/09/29 07:06:56;;;;;;;9.55;1.02;;;;;;;16.94;68.15;101269.66;4975798;28;20098;-65
2021/09/29 07:09:21;;;;;;;2.15;1.13;;;;;;;17.40;65.83;101269.47;4976544;28;20031;-64
2021/09/29 07:11:46;;;;;;;10.77;1.02;;;;;;;16.91;67.69;101270.66;4975976;28;20272;-62
2021/09/29 07:14:13;;;;;;;3.63;1.33;;;;;;;17.07;68.83;101279.38;4974697;28;20039;-65
2021/09/29 07:16:38;;;;;;;6.90;1.30;;;;;;;17.04;67.88;101284.84;4974780;28;20567;-63
2021/09/29 07:19:04;;;;;;;19.63;1.60;;;;;;;17.25;67.74;101297.72;4976083;28;20037;-64
2021/09/29 07:21:30;;;;;;;19.10;1.75;;;;;;;17.26;68.24;101295.00;4972986;28;20054;-64
2021/09/29 07:23:55;;;;;;;5.32;1.10;;;;;;;16.38;66.96;101312.53;4975426;28;20027;-63
2021/09/29 07:26:21;;;;;;;13.35;1.42;;;;;;;17.19;67.84;101306.03;4975679;28;20039;-65
2021/09/29 07:28:48;;;;;;;26.27;2.40;;;;;;;17.32;69.34;101307.00;4974051;28;20073;-65
2021/09/29 07:31:14;;;;;;;9.63;1.73;;;;;;;17.32;67.95;101306.13;4970943;28;20103;-64
2021/09/29 07:33:39;;;;;;;27.65;3.33;;;;;;;17.38;69.21;101306.59;4975973;28;20050;-65
2021/09/29 07:36:06;;;;;;;20.88;2.83;;;;;;;18.26;66.06;101300.22;4975881;28;20049;-65
2021/09/29 07:38:31;;;;;;;30.90;2.65;;;;;;;18.53;64.58;101305.50;4974538;28;20344;-64
2021/09/29 07:40:57;;;;;;;17.52;2.97;;;;;;;18.49;65.19;101304.00;4975026;28;20039;-64
2021/09/29 07:43:22;;;;;;;31.25;3.53;;;;;;;18.53;65.44;101300.19;4975169;28;20037;-65
2021/09/29 07:45:47;;;;;;;31.48;3.50;;;;;;;18.60;65.53;101296.16;4974823;28;20037;-65
2021/09/29 07:48:13;;;;;;;23.95;3.45;;;;;;;18.57;66.40;101299.03;4977915;28;20372;-65
2021/09/29 07:50:38;;;;;;;18.48;2.58;;;;;;;18.58;66.57;101300.72;4980767;28;20034;-66
2021/09/29 07:53:04;;;;;;;23.15;2.58;;;;;;;18.61;66.70;101303.19;4981156;28;20044;-65
2021/09/29 07:55:29;;;;;;;20.10;2.50;;;;;;;18.68;66.46;101299.16;4978166;28;20045;-65
2021/09/29 07:57:54;;;;;;;23.88;2.90;;;;;;;18.61;66.68;101311.16;4984024;28;20442;-65
2021/09/29 08:00:20;;;;;;;12.00;2.13;;;;;;;18.62;66.45;101312.81;4983344;28;20030;-65
2021/09/29 08:02:46;;;;;;;40.53;4.90;;;;;;;18.62;66.55;101315.47;4985390;28;20030;-64
2021/09/29 08:05:12;;;;;;;20.85;3.03;;;;;;;18.66;66.53;101321.44;4984526;28;20054;-65
2021/09/29 08:07:40;;;;;;;24.33;2.90;;;;;;;18.84;66.06;101322.03;4983360;28;20051;-65
2021/09/29 08:10:07;;;;;;;14.52;2.75;;;;;;;18.73;66.45;101314.75;4980537;28;20050;-65
2021/09/29 08:12:32;;;;;;;17.20;2.38;;;;;;;18.68;66.63;101314.22;4980410;28;20038;-65
2021/09/29 08:14:58;;;;;;;30.58;3.83;;;;;;;18.72;66.36;101315.69;4981955;28;20057;-64
2021/09/29 08:17:23;;;;;;;16.90;3.10;;;;;;;18.76;66.24;101320.72;4981195;28;20409;-65
2021/09/29 08:19:48;;;;;;;28.15;3.47;;;;;;;18.72;66.43;101331.63;4990464;28;20042;-64
2021/09/29 08:22:14;;;;;;;17.77;2.50;;;;;;;18.76;66.18;101317.22;4972433;28;20081;-65
2021/09/29 08:32:16;;;;;;;19.95;2.85;;;;;;;18.79;66.46;101340.88;4980511;28;20063;-65
2021/09/29 08:39:47;;;;;;;18.23;2.90;;;;;;;18.72;66.60;101332.50;4978167;28;20034;-65
2021/09/29 08:42:41;;;;;;;12.93;2.17;;;;;;;18.82;66.31;101334.56;4978740;28;20053;-65
2021/09/29 08:45:19;;;;;;;18.92;2.85;;;;;;;18.91;66.00;101339.22;4978282;28;20121;-64
2021/09/29 08:48:00;;;;;;;24.67;2.75;;;;;;;18.82;66.06;101334.56;4988168;28;20034;-66
2021/09/29 08:51:21;;;;;;;17.45;2.65;;;;;;;18.75;66.06;101337.56;4983089;28;20042;-65
2021/09/29 09:15:20;;;;;;;25.80;3.67;;;;;;;19.12;65.36;101355.50;4964846;28;20090;-65
2021/09/29 09:17:41;;;;;;;19.70;2.85;;;;;;;18.98;65.49;101359.09;4980589;28;20046;-65
2021/09/29 09:20:19;;;;;;;32.95;3.90;;;;;;;18.92;66.13;101373.63;4981930;28;20313;-65
2021/09/29 09:22:47;;;;;;;35.72;4.18;;;;;;;18.96;65.65;101343.28;4980972;28;20396;-67
2021/09/29 09:25:13;;;;;;;19.10;2.75;;;;;;;18.86;65.61;101363.41;4981073;28;20030;-66
2021/09/29 09:27:46;;;;;;;9.32;1.90;;;;;;;18.68;64.77;101367.28;4987090;28;20058;-66
2021/09/29 09:30:32;;;;;;;25.23;2.20;;;;;;;18.82;64.43;101374.34;4984586;28;20042;-65
2021/09/29 09:32:58;;;;;;;22.73;2.97;;;;;;;18.77;65.33;101356.03;4982829;28;20062;-64
2021/09/29 09:35:30;;;;;;;18.08;2.10;;;;;;;18.76;65.49;101343.75;4981748;28;20062;-65
2021/09/29 09:37:57;;;;;;;21.10;2.28;;;;;;;18.74;65.91;101367.72;4980237;28;20046;-65
2021/09/29 09:40:25;;;;;;;21.38;2.20;;;;;;;18.90;65.73;101380.84;4973873;28;20295;-65
2021/09/29 09:42:56;;;;;;;20.40;2.33;;;;;;;18.90;65.91;101398.56;4979871;28;20094;-65
2021/09/29 09:45:42;;;;;;;15.95;2.35;;;;;;;18.83;66.15;101386.66;4979450;28;20038;-65
2021/09/29 09:48:35;;;;;;;17.33;2.10;;;;;;;18.81;66.47;101389.44;4982694;28;20035;-64
2021/09/29 09:51:03;;;;;;;8.77;2.17;;;;;;;18.82;66.55;101383.16;4977069;28;20069;-65
2021/09/29 09:53:29;;;;;;;13.13;3.20;;;;;;;18.84;66.78;101386.56;4979736;28;20352;-65
2021/09/29 09:55:54;;;;;;;21.67;3.05;;;;;;;18.97;66.27;101397.19;4979244;28;20046;-65
2021/09/29 09:58:20;;;;;;;10.55;3.03;;;;;;;18.92;66.38;101399.34;4979273;28;20388;-66
2021/09/29 10:00:45;;;;;;;30.33;3.00;;;;;;;19.18;66.02;101397.56;4980053;28;20062;-67
2021/09/29 10:03:11;;;;;;;15.93;2.67;;;;;;;19.03;65.61;101403.88;4980044;28;20045;-66
2021/09/29 10:05:38;;;;;;;46.92;3.25;;;;;;;19.01;65.98;101413.75;4980863;28;20070;-66
2021/09/29 10:08:06;;;;;;;18.52;2.60;;;;;;;19.04;65.70;101405.59;4980348;28;20372;-66
2021/09/29 10:24:10;;;;;;;34.30;3.10;;;;;;;19.57;64.00;101440.91;4980546;28;20419;-65
2021/09/29 10:26:35;;;;;;;16.58;2.20;;;;;;;19.64;63.74;101442.19;4968310;28;20101;-65
2021/09/29 10:29:05;;;;;;;18.75;2.33;;;;;;;19.61;63.87;101446.88;4979160;28;20351;-65
2021/09/29 10:34:29;;;;;;;17.05;3.20;;;;;;;19.90;62.89;101455.50;4979209;28;20042;-65
2021/09/29 10:50:25;;;;;;;14.18;2.05;;;;;;;20.50;59.43;101459.19;4974151;28;20157;-65
2021/09/29 11:12:15;;;;;;;22.58;3.53;;;;;;;20.90;58.74;101497.09;4978198;28;20435;-65
2021/09/29 11:28:48;;;;;;;37.65;4.63;;;;;;;21.10;58.35;101516.03;4978054;28;20054;-66
2021/09/29 11:31:24;;;;;;;32.67;4.53;;;;;;;21.04;58.30;101524.47;4980715;28;20092;-66
2021/09/29 12:09:52;;;;;;;25.95;3.28;;;;;;;20.79;54.74;101582.22;4973314;28;20581;-64
2021/09/29 12:12:25;;;;;;;12.05;2.65;;;;;;;20.93;54.83;101577.69;4977579;28;20356;-64
2021/09/29 12:14:56;;;;;;;16.02;2.90;;;;;;;21.03;54.33;101578.72;4978789;28;20058;-64
2021/09/29 12:17:26;;;;;;;16.67;2.20;;;;;;;20.95;54.61;101584.59;4980540;28;20034;-64
2021/09/29 12:20:01;;;;;;;17.30;2.83;;;;;;;21.05;54.47;101592.78;4985438;28;20039;-65
2021/09/29 12:22:29;;;;;;;20.45;2.72;;;;;;;21.03;54.64;101592.88;4981920;28;20289;-65
2021/09/29 12:25:09;;;;;;;23.83;2.78;;;;;;;20.99;54.95;101596.72;4982814;28;20031;-65
2021/09/29 12:27:38;;;;;;;16.25;2.45;;;;;;;21.01;54.73;101610.78;4980870;28;20061;-65
2021/09/29 12:30:19;;;;;;;14.27;2.67;;;;;;;21.14;54.70;101608.06;4980792;28;20034;-66
2021/09/29 12:33:46;;;;;;;14.40;2.28;;;;;;;21.16;54.68;101616.78;4980355;28;20105;-65
2021/09/29 12:35:52;;;;;;;13.57;2.80;;;;;;;21.15;54.53;101616.91;4973767;28;20066;-65
2021/09/29 12:38:18;;;;;;;13.30;2.28;;;;;;;21.19;54.48;101629.91;4979275;28;20085;-65
2021/09/29 12:40:44;;;;;;;16.23;2.78;;;;;;;21.19;54.55;101629.03;4978050;28;20054;-65
2021/09/29 12:43:11;;;;;;;17.25;2.40;;;;;;;21.34;54.27;101624.38;4981682;28;20030;-65
2021/09/29 12:45:40;;;;;;;14.07;2.53;;;;;;;21.32;54.23;101634.31;4980275;28;20038;-65
2021/09/29 12:48:08;;;;;;;10.07;2.13;;;;;;;21.35;53.99;101629.59;4986231;28;20041;-65
2021/09/29 12:50:48;;;;;;;21.20;3.03;;;;;;;21.36;54.15;101627.81;4979231;28;20046;-65
2021/09/29 12:55:45;;;;;;;17.67;2.63;;;;;;;21.44;55.58;101634.25;4980813;28;20376;-64
2021/09/29 12:58:10;;;;;;;20.98;2.70;;;;;;;21.47;53.75;101642.06;4977305;28;20066;-66
2021/09/29 13:00:36;;;;;;;17.10;1.98;;;;;;;21.38;54.12;101652.53;4984322;28;20050;-65
2021/09/29 13:03:05;;;;;;;17.08;2.38;;;;;;;21.44;54.07;101610.25;4982535;28;20059;-66
2021/09/29 13:05:30;;;;;;;20.35;2.83;;;;;;;21.42;53.95;101651.31;4976357;28;20244;-64
2021/09/29 13:07:56;;;;;;;17.35;3.22;;;;;;;21.40;54.04;101639.94;4985849;28;20346;-65
2021/09/29 13:10:21;;;;;;;19.60;2.80;;;;;;;21.40;54.03;101653.25;4979316;28;20082;-65
2021/09/29 13:12:51;;;;;;;14.95;2.30;;;;;;;21.35;53.84;101650.91;4982337;28;20090;-65
2021/09/29 13:15:17;;;;;;;22.77;2.78;;;;;;;21.42;53.99;101665.47;4979765;28;20102;-64
2021/09/29 13:17:44;;;;;;;13.75;1.85;;;;;;;21.41;53.93;101671.78;4963399;28;20065;-65
2021/09/29 13:20:15;;;;;;;11.63;2.20;;;;;;;21.37;54.08;101664.97;4982381;28;20061;-65
2021/09/29 13:22:42;;;;;;;12.60;2.50;;;;;;;21.39;53.87;101679.06;4980267;28;20105;-65
2021/09/29 13:38:48;;;;;;;13.00;2.42;;;;;;;21.31;54.26;101718.72;4978550;28;20046;-65
2021/09/29 13:41:13;;;;;;;10.30;2.03;;;;;;;21.37;54.21;101718.25;4978320;28;20062;-64
2021/09/29 13:43:38;;;;;;;10.23;1.90;;;;;;;21.37;54.21;101725.41;4980182;28;20042;-65
2021/09/29 13:46:04;;;;;;;22.52;2.55;;;;;;;21.41;53.99;101725.09;4980057;28;20073;-65
2021/09/29 13:48:30;;;;;;;13.40;1.83;;;;;;;21.44;54.00;101718.66;4979473;28;20030;-65
2021/09/29 13:50:55;;;;;;;14.07;2.17;;;;;;;21.47;53.74;101729.16;4979667;28;20050;-65